Capitol Logistics 1133


EBLG
Liège Airport
Liege, BE
EDDM
Franz Josef Strauss International Airport
Munich, DE

Activity Log

Date Flight Route Aircraft Duration
04/26/2020 CPX1133 LNO8R LNO L607 RUDUS T109 HAREM T104 ANORA ANOR3A B738 1h 05m
02/22/2020 CPX1133 LNO7S LNO Z283 SOPOK Y863 ROPUV L607 RUDUS T109 HAREM T104 ANORA ANOR3A B738 1h 09m
11/12/2019 CPX733 LNO7S LNO UN852 PELIX UL607 RIDSU UZ738 NOMBO Y161 RIXED RIXE4A B738 1h 14m
10/30/2019 CPX733 Not Available B738 0h 55m

Route Details

Aircraft Information
Primary: Boeing 737-800BCF
Backup: Not Available
Route Data
Distance: 282nm
Sched. Duration: 1h 05m
Avg. Duration: 0h 96m (-9m)
Times Flown: 4
Recm'd Route: Not Available
Planned Altitude: 33,000ft
Origin Wx: EBLG 312120Z 21013KT 9999 -RA FEW012 BKN018 14/12 Q1015 TEMPO BKN012
Dest. Wx: EDDM 312120Z 11003KT 9999 1000S R26R/1600U R26L/1000D BCFG NSC 04/04 Q1021 TEMPO 4000
Notes:

Financial History
Total Freight: 118,800lbs
Average Load: 29,700lbs/flt
Fuel Used: 22,950lbs
Avg. Fuel Used: 5,738lbs/flt
Fuel Expense: $25,475
Avg. Fuel Expense: $6,369
Avg. Fuel Cost: $1.11/lbs
Total Gross Income: $256,397
Pilot Pay: $916
Total Expenses: $27,899
Total Revenue: $202,014
Average Revenue: $64,099.20